Time;durP1;ratioP1;P1;durP2;ratioP2;P2;SDS_P1;SDS_P2;PMS_P1;PMS_P2;Temp;Humidity;BMP_temperature;BMP_pressure;BME280_temperature;BME280_humidity;BME280_pressure;Samples;Min_cycle;Max_cycle;Signal;HPM_P1;HPM_P2
2021/05/28 00:01:08;;;;;;;26.17;15.88;;;;;;;;;;5013557;28;20046;-62
2021/05/28 00:03:54;;;;;;;28.27;15.55;;;;;;;;;;5014225;28;20045;-62
2021/05/28 00:06:39;;;;;;;34.03;18.25;;;;;;;;;;5011807;28;20050;-62
2021/05/28 00:09:24;;;;;;;29.02;16.67;;;;;;;;;;4994286;28;20133;-63
2021/05/28 00:12:10;;;;;;;35.17;17.42;;;;;;;;;;4994191;28;20047;-63
2021/05/28 00:14:55;;;;;;;35.53;18.33;;;;;;;;;;4995385;28;20046;-63
2021/05/28 00:17:41;;;;;;;33.40;17.77;;;;;;;;;;4993113;28;20046;-62
2021/05/28 00:20:26;;;;;;;26.75;16.15;;;;;;;;;;4993847;28;20050;-63
2021/05/28 00:23:11;;;;;;;36.45;19.00;;;;;;;;;;4994163;28;20052;-62
2021/05/28 00:25:57;;;;;;;30.85;16.45;;;;;;;;;;5011639;28;20132;-62
2021/05/28 00:28:47;;;;;;;30.58;17.10;;;;;;;;;;5013343;28;20056;-63
2021/05/28 00:31:33;;;;;;;26.55;14.25;;;;;;;;;;5013141;28;20053;-62
2021/05/28 00:34:18;;;;;;;36.00;17.17;;;;;;;;;;5011442;28;20046;-63
2021/05/28 00:37:04;;;;;;;33.42;15.57;;;;;;;;;;4993955;28;20132;-62
2021/05/28 00:39:49;;;;;;;35.17;16.45;;;;;;;;;;4993369;28;20049;-62
2021/05/28 00:42:34;;;;;;;28.17;17.33;;;;;;;;;;4993691;28;20050;-63
2021/05/28 00:45:20;;;;;;;36.75;18.67;;;;;;;;;;5000473;28;20520;-63
2021/05/28 00:48:05;;;;;;;30.40;16.98;;;;;;;;;;5011399;28;20050;-63
2021/05/28 00:50:50;;;;;;;33.05;17.40;;;;;;;;;;5012724;28;20073;-63
2021/05/28 00:53:36;;;;;;;33.13;17.60;;;;;;;;;;5012922;28;20543;-62
2021/05/28 00:56:21;;;;;;;29.80;18.52;;;;;;;;;;4985330;28;20105;-63
2021/05/28 00:59:06;;;;;;;29.88;17.17;;;;;;;;;;4993333;28;20042;-63
2021/05/28 01:01:52;;;;;;;30.13;15.98;;;;;;;;;;4978580;28;20054;-63
2021/05/28 01:04:38;;;;;;;24.85;14.40;;;;;;;;;;4993359;28;20043;-62
2021/05/28 01:07:23;;;;;;;24.75;14.32;;;;;;;;;;5011332;28;20054;-63
2021/05/28 01:10:09;;;;;;;31.95;14.77;;;;;;;;;;5012290;28;20061;-62
2021/05/28 01:12:54;;;;;;;24.05;14.10;;;;;;;;;;5013109;28;20054;-63
2021/05/28 01:15:41;;;;;;;28.05;14.27;;;;;;;;;;4996265;28;20131;-62
2021/05/28 01:18:26;;;;;;;25.80;14.35;;;;;;;;;;4992839;28;20496;-62
2021/05/28 01:21:11;;;;;;;22.98;14.02;;;;;;;;;;4992563;28;20049;-62
2021/05/28 01:23:57;;;;;;;29.67;14.02;;;;;;;;;;4992983;28;20061;-62
2021/05/28 01:26:42;;;;;;;24.92;13.02;;;;;;;;;;4999862;28;20096;-62
2021/05/28 01:29:28;;;;;;;25.27;14.25;;;;;;;;;;5011960;28;20057;-62
2021/05/28 01:32:13;;;;;;;27.00;13.55;;;;;;;;;;5012446;28;20052;-62
2021/05/28 01:34:58;;;;;;;20.60;12.57;;;;;;;;;;5012287;28;20061;-62
2021/05/28 01:37:44;;;;;;;20.95;11.95;;;;;;;;;;4999582;28;20089;-61
2021/05/28 01:40:29;;;;;;;20.63;11.25;;;;;;;;;;4985502;28;20057;-62
2021/05/28 01:43:15;;;;;;;21.40;12.07;;;;;;;;;;4973433;28;20073;-62
2021/05/28 01:46:00;;;;;;;21.33;11.98;;;;;;;;;;4973252;28;20043;-62
2021/05/28 01:48:45;;;;;;;26.00;12.85;;;;;;;;;;4991944;28;20062;-62
2021/05/28 01:51:31;;;;;;;23.63;12.40;;;;;;;;;;4993967;28;20419;-62
2021/05/28 01:54:17;;;;;;;20.05;11.00;;;;;;;;;;5012383;28;20053;-62
2021/05/28 01:57:03;;;;;;;22.42;10.75;;;;;;;;;;5012239;28;20053;-62
2021/05/28 01:59:49;;;;;;;19.65;11.32;;;;;;;;;;4997255;28;20091;-61
2021/05/28 02:02:34;;;;;;;22.10;11.93;;;;;;;;;;5004431;28;20492;-62
2021/05/28 02:05:20;;;;;;;22.70;13.38;;;;;;;;;;4992640;28;20046;-62
2021/05/28 02:08:05;;;;;;;22.88;13.27;;;;;;;;;;4992544;28;20056;-62
2021/05/28 02:10:51;;;;;;;22.80;14.05;;;;;;;;;;4992029;28;20050;-62
2021/05/28 02:13:36;;;;;;;25.67;13.18;;;;;;;;;;5005083;28;20131;-62
2021/05/28 02:16:21;;;;;;;23.33;14.18;;;;;;;;;;5012180;28;20050;-62
2021/05/28 02:19:08;;;;;;;25.63;13.52;;;;;;;;;;5010265;28;20065;-62
2021/05/28 02:21:53;;;;;;;23.98;12.98;;;;;;;;;;4973153;28;20050;-62
2021/05/28 02:24:39;;;;;;;24.20;13.57;;;;;;;;;;5003985;28;20050;-62
2021/05/28 02:27:24;;;;;;;22.40;14.00;;;;;;;;;;4991959;28;20057;-62
2021/05/28 02:30:10;;;;;;;28.92;15.30;;;;;;;;;;4990912;28;20052;-62
2021/05/28 02:32:55;;;;;;;27.67;15.15;;;;;;;;;;4992326;28;20050;-62
2021/05/28 02:35:40;;;;;;;20.67;13.77;;;;;;;;;;4992166;28;20054;-62
2021/05/28 02:38:26;;;;;;;26.48;15.13;;;;;;;;;;4992101;28;20125;-62
2021/05/28 02:41:11;;;;;;;24.05;14.13;;;;;;;;;;4994310;28;20073;-61
2021/05/28 02:43:57;;;;;;;24.27;14.10;;;;;;;;;;5002689;28;20515;-61
2021/05/28 02:46:42;;;;;;;25.83;13.38;;;;;;;;;;5015468;28;20049;-62
2021/05/28 02:49:28;;;;;;;20.60;13.73;;;;;;;;;;5014940;28;20220;-62
2021/05/28 02:52:14;;;;;;;17.65;11.27;;;;;;;;;;5015064;28;20046;-61
2021/05/28 02:54:59;;;;;;;22.02;11.57;;;;;;;;;;5002459;28;20050;-61
2021/05/28 02:57:45;;;;;;;21.65;11.85;;;;;;;;;;4995554;28;20050;-62
2021/05/28 03:00:31;;;;;;;27.02;11.77;;;;;;;;;;4995128;28;20048;-61
2021/05/28 03:03:16;;;;;;;22.70;12.73;;;;;;;;;;4995669;28;20054;-61
2021/05/28 03:06:01;;;;;;;22.25;11.10;;;;;;;;;;5013499;28;20048;-62
2021/05/28 03:08:46;;;;;;;16.92;10.73;;;;;;;;;;5014870;28;20139;-62
2021/05/28 03:11:32;;;;;;;16.65;10.23;;;;;;;;;;5014731;28;20451;-62
2021/05/28 03:14:18;;;;;;;17.90;10.38;;;;;;;;;;5013139;28;20054;-62
2021/05/28 03:17:03;;;;;;;18.08;10.10;;;;;;;;;;4995114;28;20057;-62
2021/05/28 03:19:49;;;;;;;19.02;10.18;;;;;;;;;;4995030;28;20129;-62
2021/05/28 03:22:34;;;;;;;20.73;9.23;;;;;;;;;;4995178;28;20046;-62
2021/05/28 03:25:20;;;;;;;15.10;8.75;;;;;;;;;;5001883;28;20069;-62
2021/05/28 03:28:05;;;;;;;18.25;8.90;;;;;;;;;;5014794;28;20057;-62
2021/05/28 03:30:51;;;;;;;18.00;7.80;;;;;;;;;;5014329;28;20080;-62
2021/05/28 03:33:36;;;;;;;15.25;8.40;;;;;;;;;;5014479;28;20050;-62
2021/05/28 03:36:21;;;;;;;15.45;8.63;;;;;;;;;;5001660;28;20492;-62
2021/05/28 03:39:07;;;;;;;21.02;8.63;;;;;;;;;;4995041;28;20053;-62
2021/05/28 03:41:52;;;;;;;17.55;8.02;;;;;;;;;;4994931;28;20050;-62
2021/05/28 03:44:38;;;;;;;14.70;8.98;;;;;;;;;;4994631;28;20507;-62
2021/05/28 03:47:23;;;;;;;12.85;7.80;;;;;;;;;;5012354;28;20495;-62
2021/05/28 03:50:09;;;;;;;14.30;7.90;;;;;;;;;;5013867;28;20053;-62
2021/05/28 03:52:54;;;;;;;16.77;7.70;;;;;;;;;;5013915;28;20046;-62
2021/05/28 03:55:39;;;;;;;16.58;8.32;;;;;;;;;;5012626;28;20550;-62
2021/05/28 03:58:25;;;;;;;14.85;8.05;;;;;;;;;;4994451;28;20058;-62
2021/05/28 04:01:11;;;;;;;15.43;7.80;;;;;;;;;;4994230;28;20054;-62
2021/05/28 04:03:56;;;;;;;13.48;7.93;;;;;;;;;;4979741;28;20149;-62
2021/05/28 04:06:41;;;;;;;18.15;8.48;;;;;;;;;;5000660;28;20509;-62
2021/05/28 04:09:27;;;;;;;18.50;8.13;;;;;;;;;;5013419;28;20404;-62
2021/05/28 04:12:12;;;;;;;15.75;7.45;;;;;;;;;;5013865;28;20141;-62
2021/05/28 04:14:57;;;;;;;14.68;8.13;;;;;;;;;;5007652;28;20046;-62
2021/05/28 04:17:42;;;;;;;14.73;8.20;;;;;;;;;;4992889;28;20121;-62
2021/05/28 04:20:27;;;;;;;16.80;8.38;;;;;;;;;;4993890;28;20133;-62
2021/05/28 04:23:13;;;;;;;19.67;8.55;;;;;;;;;;4994001;28;20051;-62
2021/05/28 04:25:58;;;;;;;16.77;7.97;;;;;;;;;;5004867;28;20045;-62
2021/05/28 04:28:44;;;;;;;14.98;8.23;;;;;;;;;;5013640;28;20077;-62
2021/05/28 04:31:29;;;;;;;13.50;7.75;;;;;;;;;;4998231;28;20116;-62
2021/05/28 04:34:14;;;;;;;14.43;8.50;;;;;;;;;;5013318;28;20056;-62
2021/05/28 04:37:00;;;;;;;16.55;9.45;;;;;;;;;;4996171;28;20044;-62
2021/05/28 04:39:45;;;;;;;19.75;8.82;;;;;;;;;;4993401;28;20424;-62
2021/05/28 04:42:31;;;;;;;16.83;8.73;;;;;;;;;;4993540;28;20051;-62
2021/05/28 04:45:16;;;;;;;13.80;7.75;;;;;;;;;;4993456;28;20039;-62
2021/05/28 04:48:02;;;;;;;19.73;8.40;;;;;;;;;;4974024;28;20150;-62
2021/05/28 04:50:47;;;;;;;15.10;7.43;;;;;;;;;;4973561;28;20054;-62
2021/05/28 04:53:33;;;;;;;17.88;7.72;;;;;;;;;;4974140;28;20131;-62
2021/05/28 04:56:18;;;;;;;12.82;7.95;;;;;;;;;;4985502;28;20057;-62
2021/05/28 04:59:04;;;;;;;17.08;8.77;;;;;;;;;;5012469;28;20048;-62
2021/05/28 05:01:49;;;;;;;13.93;7.85;;;;;;;;;;5012790;28;20053;-62
2021/05/28 05:04:34;;;;;;;20.90;9.93;;;;;;;;;;5012159;28;20042;-62
2021/05/28 05:07:20;;;;;;;16.83;9.10;;;;;;;;;;5001408;28;20046;-62
2021/05/28 05:10:06;;;;;;;17.00;8.88;;;;;;;;;;4993024;28;20157;-62
2021/05/28 05:12:51;;;;;;;16.00;8.88;;;;;;;;;;4993024;28;20061;-62
2021/05/28 05:15:37;;;;;;;16.23;8.90;;;;;;;;;;4992915;28;20504;-62
2021/05/28 05:18:24;;;;;;;18.88;9.40;;;;;;;;;;5012072;28;20053;-63
2021/05/28 05:21:10;;;;;;;14.15;8.40;;;;;;;;;;5016080;28;20507;-63
2021/05/28 05:23:55;;;;;;;15.95;8.30;;;;;;;;;;5018049;28;20096;-64
2021/05/28 05:26:41;;;;;;;16.63;8.80;;;;;;;;;;5014525;28;20407;-62
2021/05/28 05:29:26;;;;;;;14.63;8.23;;;;;;;;;;4992687;28;20405;-62
2021/05/28 05:32:12;;;;;;;18.08;8.82;;;;;;;;;;4991824;28;20145;-61
2021/05/28 05:34:57;;;;;;;14.15;7.82;;;;;;;;;;4992852;28;20135;-62
2021/05/28 05:37:43;;;;;;;16.05;7.88;;;;;;;;;;4992935;28;20144;-61
2021/05/28 05:40:28;;;;;;;18.42;8.20;;;;;;;;;;4992502;28;20047;-61
2021/05/28 05:43:13;;;;;;;14.73;8.18;;;;;;;;;;5000358;28;20046;-61
2021/05/28 05:46:01;;;;;;;14.32;7.90;;;;;;;;;;5008994;28;20518;-63
2021/05/28 05:48:47;;;;;;;14.02;7.57;;;;;;;;;;5010350;28;20043;-62
2021/05/28 05:51:32;;;;;;;14.25;7.57;;;;;;;;;;4975166;23;20055;-61
2021/05/28 05:54:18;;;;;;;15.48;8.13;;;;;;;;;;4954062;29;20054;-61
2021/05/28 05:57:03;;;;;;;19.95;7.40;;;;;;;;;;4953843;29;20501;-61
2021/05/28 05:59:48;;;;;;;17.17;8.77;;;;;;;;;;4953006;29;20445;-60
2021/05/28 06:02:34;;;;;;;19.35;9.45;;;;;;;;;;4934710;29;20047;-61
2021/05/28 06:05:20;;;;;;;14.57;7.05;;;;;;;;;;4934843;29;20052;-61
2021/05/28 06:08:05;;;;;;;13.70;8.10;;;;;;;;;;4934192;29;20506;-61
2021/05/28 06:10:51;;;;;;;15.93;7.72;;;;;;;;;;4915480;29;20079;-62
2021/05/28 06:13:36;;;;;;;15.02;7.70;;;;;;;;;;4915679;29;20052;-61
2021/05/28 06:16:22;;;;;;;18.67;8.15;;;;;;;;;;4919011;29;20173;-63
2021/05/28 06:19:07;;;;;;;14.30;7.82;;;;;;;;;;4925566;29;20058;-63
2021/05/28 06:21:52;;;;;;;13.43;7.28;;;;;;;;;;4938364;29;20055;-63
2021/05/28 06:24:38;;;;;;;17.10;8.30;;;;;;;;;;4938256;29;20059;-63
2021/05/28 06:27:23;;;;;;;12.30;7.15;;;;;;;;;;4923964;29;20051;-63
2021/05/28 06:30:08;;;;;;;13.48;7.18;;;;;;;;;;4927110;29;20130;-63
2021/05/28 06:32:53;;;;;;;14.90;7.38;;;;;;;;;;4919102;29;20044;-63
2021/05/28 06:35:39;;;;;;;9.93;6.40;;;;;;;;;;4919274;29;20131;-63
2021/05/28 06:38:24;;;;;;;13.30;7.70;;;;;;;;;;4918974;29;20455;-63
2021/05/28 06:41:10;;;;;;;12.93;7.25;;;;;;;;;;4934651;29;20414;-63
2021/05/28 06:43:55;;;;;;;13.18;7.05;;;;;;;;;;4938041;29;20052;-63
2021/05/28 06:46:40;;;;;;;11.88;6.55;;;;;;;;;;4938041;29;20048;-63
2021/05/28 06:49:26;;;;;;;13.80;6.97;;;;;;;;;;4937979;29;20051;-63
2021/05/28 06:52:11;;;;;;;15.07;7.13;;;;;;;;;;4928374;29;20097;-63
2021/05/28 06:54:56;;;;;;;12.65;7.30;;;;;;;;;;4928866;29;20047;-63
2021/05/28 06:57:42;;;;;;;11.52;6.57;;;;;;;;;;4924531;29;20048;-64
2021/05/28 07:00:27;;;;;;;17.70;8.57;;;;;;;;;;4924637;29;20073;-63
2021/05/28 07:03:14;;;;;;;14.70;8.88;;;;;;;;;;4927971;29;20047;-63
2021/05/28 07:05:59;;;;;;;12.95;7.47;;;;;;;;;;4928589;29;20051;-63
2021/05/28 07:08:45;;;;;;;12.23;7.63;;;;;;;;;;4925839;29;20176;-63
2021/05/28 07:11:30;;;;;;;10.90;7.70;;;;;;;;;;4925680;29;20058;-63
2021/05/28 07:14:16;;;;;;;12.02;7.50;;;;;;;;;;4937444;29;20478;-63
2021/05/28 07:17:01;;;;;;;9.35;7.00;;;;;;;;;;4937553;29;20052;-63
2021/05/28 07:19:46;;;;;;;12.90;7.95;;;;;;;;;;4936992;29;20050;-63
2021/05/28 07:22:32;;;;;;;13.57;6.85;;;;;;;;;;4907138;29;20059;-63
2021/05/28 07:25:18;;;;;;;12.07;7.00;;;;;;;;;;4918111;29;20051;-64
2021/05/28 07:28:03;;;;;;;10.27;7.15;;;;;;;;;;4935529;29;20047;-63
2021/05/28 07:30:49;;;;;;;11.70;7.22;;;;;;;;;;4936967;29;20058;-64
2021/05/28 07:33:34;;;;;;;13.88;7.05;;;;;;;;;;4918009;29;20431;-64
2021/05/28 07:36:22;;;;;;;13.90;7.00;;;;;;;;;;4918189;29;20044;-63
2021/05/28 07:39:07;;;;;;;8.90;5.28;;;;;;;;;;4917880;29;20055;-63
2021/05/28 07:41:52;;;;;;;12.88;6.32;;;;;;;;;;4922795;29;20123;-63
2021/05/28 07:44:38;;;;;;;11.40;6.82;;;;;;;;;;4937063;29;20059;-63
2021/05/28 07:47:23;;;;;;;8.63;5.70;;;;;;;;;;4937023;29;20171;-63
2021/05/28 07:50:09;;;;;;;13.75;6.68;;;;;;;;;;4936286;29;20051;-63
2021/05/28 07:52:54;;;;;;;10.15;5.82;;;;;;;;;;4926291;29;20131;-63
2021/05/28 07:55:39;;;;;;;12.02;5.60;;;;;;;;;;4903496;29;20059;-64
2021/05/28 07:58:24;;;;;;;9.88;6.07;;;;;;;;;;4917492;29;20051;-63
2021/05/28 08:01:10;;;;;;;9.68;5.97;;;;;;;;;;4917245;29;20040;-63
2021/05/28 08:03:56;;;;;;;15.60;6.35;;;;;;;;;;4933011;29;20047;-63
2021/05/28 08:06:41;;;;;;;8.77;5.13;;;;;;;;;;4936416;29;20127;-63
2021/05/28 08:09:27;;;;;;;9.35;5.20;;;;;;;;;;4936343;29;20180;-64
2021/05/28 08:12:12;;;;;;;12.15;6.68;;;;;;;;;;4936529;29;20054;-63
2021/05/28 08:14:58;;;;;;;9.57;6.43;;;;;;;;;;4917353;29;20067;-64
2021/05/28 08:17:43;;;;;;;8.90;5.60;;;;;;;;;;4917204;29;20415;-63
2021/05/28 08:20:28;;;;;;;12.73;5.47;;;;;;;;;;4916885;29;20065;-63
2021/05/28 08:23:14;;;;;;;11.68;5.78;;;;;;;;;;4921808;29;20055;-64
2021/05/28 08:26:02;;;;;;;11.20;5.53;;;;;;;;;;4921872;29;20413;-63
2021/05/28 08:28:47;;;;;;;9.55;5.78;;;;;;;;;;4936168;29;20056;-64
2021/05/28 08:31:33;;;;;;;9.30;5.90;;;;;;;;;;4935897;29;20172;-63
2021/05/28 08:34:18;;;;;;;12.88;6.32;;;;;;;;;;4925358;29;20713;-63
2021/05/28 08:37:04;;;;;;;10.50;6.10;;;;;;;;;;4916932;29;20145;-63
2021/05/28 08:39:49;;;;;;;7.75;5.15;;;;;;;;;;4916282;29;20044;-65
2021/05/28 08:42:34;;;;;;;11.75;5.88;;;;;;;;;;4926407;29;20055;-64
2021/05/28 08:45:20;;;;;;;11.88;6.13;;;;;;;;;;4935711;29;20535;-63
2021/05/28 08:48:06;;;;;;;6.00;4.25;;;;;;;;;;4935694;29;20062;-64
2021/05/28 08:50:51;;;;;;;7.68;5.03;;;;;;;;;;4920721;29;20058;-64
2021/05/28 08:53:36;;;;;;;9.77;5.15;;;;;;;;;;4920293;29;20048;-64
2021/05/28 08:56:21;;;;;;;7.30;4.40;;;;;;;;;;4916697;29;20052;-63
2021/05/28 08:59:07;;;;;;;11.90;5.10;;;;;;;;;;4917152;29;20048;-64
2021/05/28 09:01:53;;;;;;;7.50;4.50;;;;;;;;;;4924332;29;20048;-65
2021/05/28 09:04:39;;;;;;;10.18;5.03;;;;;;;;;;4926421;29;20043;-64
2021/05/28 09:07:24;;;;;;;7.22;4.40;;;;;;;;;;4924390;29;20051;-64
2021/05/28 09:10:29;;;;;;;8.57;4.35;;;;;;;;;;4930329;29;20056;-64
2021/05/28 09:13:18;;;;;;;7.03;3.97;;;;;;;;;;4918907;29;20499;-63
2021/05/28 09:16:05;;;;;;;9.70;4.97;;;;;;;;;;4916348;29;20071;-64
2021/05/28 09:18:51;;;;;;;10.52;5.20;;;;;;;;;;4916469;29;20059;-64
2021/05/28 09:21:36;;;;;;;8.50;6.18;;;;;;;;;;4901832;29;20521;-64
2021/05/28 09:24:31;;;;;;;9.27;4.72;;;;;;;;;;4934995;29;20516;-64
2021/05/28 09:27:24;;;;;;;8.90;5.53;;;;;;;;;;4920879;29;20035;-63
2021/05/28 09:30:09;;;;;;;;;;;;;;;;;;4935119;29;20410;-64
2021/05/28 09:32:56;;;;;;;8.63;4.50;;;;;;;;;;4926910;29;19930;-63
2021/05/28 09:35:41;;;;;;;10.00;8.38;;;;;;;;;;4916260;29;20051;-64
2021/05/28 09:38:27;;;;;;;9.45;5.75;;;;;;;;;;4915963;29;20132;-63
2021/05/28 09:41:12;;;;;;;5.43;4.28;;;;;;;;;;4915850;29;20056;-65
2021/05/28 09:44:27;;;;;;;6.65;4.78;;;;;;;;;;4929816;29;20098;-64
2021/05/28 09:47:18;;;;;;;5.13;4.53;;;;;;;;;;4932750;29;20052;-65
2021/05/28 09:50:04;;;;;;;8.23;6.93;;;;;;;;;;4934444;29;20063;-64
2021/05/28 09:52:49;;;;;;;6.63;4.15;;;;;;;;;;4933917;29;20062;-65
2021/05/28 09:55:36;;;;;;;7.07;4.50;;;;;;;;;;4916393;29;20072;-65
2021/05/28 09:58:22;;;;;;;6.05;4.30;;;;;;;;;;4916797;29;20559;-65
2021/05/28 10:01:10;;;;;;;9.20;5.40;;;;;;;;;;4916230;29;20052;-65
2021/05/28 10:04:02;;;;;;;5.57;3.40;;;;;;;;;;4923341;29;20070;-64
2021/05/28 10:06:49;;;;;;;4.63;3.28;;;;;;;;;;4935214;29;20059;-63
2021/05/28 10:09:34;;;;;;;5.07;3.53;;;;;;;;;;4946694;29;20403;-63
2021/05/28 10:12:20;;;;;;;10.25;4.75;;;;;;;;;;4947307;29;20062;-64
2021/05/28 10:15:08;;;;;;;8.38;4.05;;;;;;;;;;4920913;29;20521;-64
2021/05/28 10:17:53;;;;;;;9.02;4.47;;;;;;;;;;4901600;29;20105;-64
2021/05/28 10:20:39;;;;;;;8.45;5.75;;;;;;;;;;4901265;29;20189;-64
2021/05/28 10:23:24;;;;;;;5.20;3.55;;;;;;;;;;4915581;29;20476;-63
2021/05/28 10:26:09;;;;;;;6.50;4.18;;;;;;;;;;4934519;29;20518;-64
2021/05/28 10:28:55;;;;;;;7.13;4.78;;;;;;;;;;4920230;29;20611;-64
2021/05/28 10:31:59;;;;;;;7.40;5.18;;;;;;;;;;4919958;29;20051;-64
2021/05/28 10:35:05;;;;;;;6.63;4.03;;;;;;;;;;4933740;29;20050;-64
2021/05/28 10:37:50;;;;;;;5.50;3.67;;;;;;;;;;4933486;29;20066;-64
2021/05/28 10:40:35;;;;;;;3.53;3.08;;;;;;;;;;4938535;29;20046;-64
2021/05/28 10:43:21;;;;;;;6.47;3.45;;;;;;;;;;4919742;29;20152;-63
2021/05/28 10:46:06;;;;;;;7.10;4.30;;;;;;;;;;4926001;29;20115;-64
2021/05/28 10:49:01;;;;;;;8.82;4.32;;;;;;;;;;4925975;29;20426;-65
2021/05/28 10:51:46;;;;;;;6.97;4.38;;;;;;;;;;4924579;29;20111;-65
2021/05/28 10:54:32;;;;;;;9.50;3.80;;;;;;;;;;4925950;29;20051;-66
2021/05/28 10:57:18;;;;;;;7.38;3.63;;;;;;;;;;4926368;29;20054;-65
2021/05/28 11:00:08;;;;;;;7.07;3.17;;;;;;;;;;4926324;29;20051;-65
2021/05/28 11:02:55;;;;;;;5.40;3.72;;;;;;;;;;4929088;29;20043;-64
2021/05/28 11:05:51;;;;;;;6.57;3.30;;;;;;;;;;4928344;29;20411;-65
2021/05/28 11:08:37;;;;;;;2.50;2.20;;;;;;;;;;4932527;29;20040;-66
2021/05/28 11:11:37;;;;;;;4.18;2.53;;;;;;;;;;4938984;29;20050;-65
2021/05/28 11:14:22;;;;;;;4.53;1.98;;;;;;;;;;4925344;29;20063;-66
2021/05/28 11:17:08;;;;;;;5.25;2.67;;;;;;;;;;4929057;29;20052;-65
2021/05/28 11:19:56;;;;;;;3.58;2.83;;;;;;;;;;4927957;29;20180;-65
2021/05/28 11:22:41;;;;;;;6.07;3.20;;;;;;;;;;4917766;29;20051;-66
2021/05/28 11:25:30;;;;;;;2.85;1.80;;;;;;;;;;4932826;29;20050;-65
2021/05/28 11:28:16;;;;;;;5.05;1.80;;;;;;;;;;4933252;29;20050;-65
2021/05/28 11:31:02;;;;;;;5.65;2.00;;;;;;;;;;4939473;29;20067;-65
2021/05/28 11:33:48;;;;;;;3.40;2.47;;;;;;;;;;4907162;29;20100;-65
2021/05/28 11:36:34;;;;;;;4.75;2.33;;;;;;;;;;4923693;29;20051;-63
2021/05/28 11:39:20;;;;;;;5.43;2.75;;;;;;;;;;4917749;29;20131;-64
2021/05/28 11:42:06;;;;;;;4.03;1.90;;;;;;;;;;4917856;29;20180;-64
2021/05/28 11:44:53;;;;;;;3.72;2.00;;;;;;;;;;4917863;29;20047;-64
2021/05/28 11:47:38;;;;;;;2.85;2.10;;;;;;;;;;4917800;29;20181;-64
2021/05/28 11:50:24;;;;;;;3.65;1.60;;;;;;;;;;4917339;29;20160;-64
2021/05/28 11:53:10;;;;;;;4.53;1.85;;;;;;;;;;4998944;23;20106;-65
2021/05/28 11:55:56;;;;;;;2.65;1.38;;;;;;;;;;4994396;28;20527;-65
2021/05/28 11:58:50;;;;;;;3.17;1.27;;;;;;;;;;4994585;28;20046;-65
2021/05/28 12:01:43;;;;;;;3.05;1.65;;;;;;;;;;4994232;28;20166;-65
2021/05/28 12:04:30;;;;;;;2.28;1.73;;;;;;;;;;4994210;28;20082;-65
2021/05/28 12:07:15;;;;;;;2.47;1.95;;;;;;;;;;4991738;28;20053;-65
2021/05/28 12:10:01;;;;;;;2.42;1.30;;;;;;;;;;4974639;28;20059;-66
2021/05/28 12:12:53;;;;;;;3.53;1.65;;;;;;;;;;4987907;28;20045;-65
2021/05/28 12:15:42;;;;;;;3.67;1.80;;;;;;;;;;4974935;28;20054;-65
2021/05/28 12:18:28;;;;;;;2.15;1.55;;;;;;;;;;4992696;28;20060;-65
2021/05/28 12:21:14;;;;;;;6.68;1.90;;;;;;;;;;4992925;28;20057;-65
2021/05/28 12:24:00;;;;;;;2.97;1.70;;;;;;;;;;4993704;28;20050;-65
2021/05/28 12:26:46;;;;;;;7.30;1.40;;;;;;;;;;4993640;28;20058;-65
2021/05/28 12:29:31;;;;;;;4.50;2.03;;;;;;;;;;4984520;28;20113;-65
2021/05/28 12:32:16;;;;;;;3.15;1.60;;;;;;;;;;4977895;28;20046;-66
2021/05/28 12:35:01;;;;;;;2.15;1.20;;;;;;;;;;4977531;28;20046;-65
2021/05/28 12:38:03;;;;;;;3.63;1.20;;;;;;;;;;4972788;28;20129;-66
2021/05/28 12:40:48;;;;;;;4.47;1.38;;;;;;;;;;4973776;28;20045;-65
2021/05/28 12:43:33;;;;;;;1.95;0.90;;;;;;;;;;4974368;28;20477;-65
2021/05/28 12:46:26;;;;;;;3.08;1.35;;;;;;;;;;4981069;28;20050;-65
2021/05/28 12:49:15;;;;;;;4.03;1.27;;;;;;;;;;4992166;28;20050;-65
2021/05/28 12:52:01;;;;;;;2.50;1.42;;;;;;;;;;4989304;28;20408;-66
2021/05/28 12:54:58;;;;;;;3.83;1.30;;;;;;;;;;4993734;28;20056;-65
2021/05/28 12:57:43;;;;;;;3.10;1.20;;;;;;;;;;4978441;28;20544;-65
2021/05/28 13:00:32;;;;;;;3.65;1.00;;;;;;;;;;4990197;28;20492;-65
2021/05/28 13:03:30;;;;;;;3.83;1.30;;;;;;;;;;4993178;28;20173;-65
2021/05/28 13:06:28;;;;;;;2.92;1.02;;;;;;;;;;4991868;28;20049;-65
2021/05/28 13:09:19;;;;;;;1.77;1.23;;;;;;;;;;4992459;28;20049;-65
2021/05/28 13:12:06;;;;;;;2.75;0.88;;;;;;;;;;4992001;28;20050;-65
2021/05/28 13:14:54;;;;;;;4.05;1.00;;;;;;;;;;4989812;28;20049;-65
2021/05/28 13:17:39;;;;;;;2.65;0.90;;;;;;;;;;4992836;28;20138;-65
2021/05/28 13:20:26;;;;;;;3.90;0.95;;;;;;;;;;4992304;28;20057;-65
2021/05/28 13:23:18;;;;;;;4.45;1.20;;;;;;;;;;4993024;28;20128;-65
2021/05/28 13:26:03;;;;;;;;;;;;;;;;;;4992250;28;20101;-65
2021/05/28 13:28:48;;;;;;;3.20;1.30;;;;;;;;;;4992802;28;20020;-65
2021/05/28 13:31:34;;;;;;;4.07;1.00;;;;;;;;;;4990029;28;20060;-65
2021/05/28 13:34:19;;;;;;;1.70;0.70;;;;;;;;;;4978152;28;20053;-65
2021/05/28 13:37:04;;;;;;;2.30;0.70;;;;;;;;;;4982750;28;20089;-65
2021/05/28 13:39:50;;;;;;;2.75;0.90;;;;;;;;;;4991173;28;20053;-65
2021/05/28 13:42:35;;;;;;;1.67;0.82;;;;;;;;;;4981227;28;20124;-65
2021/05/28 13:45:21;;;;;;;2.05;0.63;;;;;;;;;;4991242;28;20042;-65
2021/05/28 13:48:06;;;;;;;3.58;1.17;;;;;;;;;;4991801;28;20049;-65
2021/05/28 13:50:51;;;;;;;2.33;0.98;;;;;;;;;;4991425;28;20058;-64
2021/05/28 13:53:36;;;;;;;1.00;0.70;;;;;;;;;;4990855;28;20447;-66
2021/05/28 13:56:22;;;;;;;1.75;0.90;;;;;;;;;;4991684;28;20049;-65
2021/05/28 13:59:08;;;;;;;1.95;0.88;;;;;;;;;;4986082;28;20096;-65
2021/05/28 14:01:53;;;;;;;4.03;1.20;;;;;;;;;;4982843;28;20066;-66
2021/05/28 14:04:38;;;;;;;2.13;1.00;;;;;;;;;;4968997;28;20519;-66
2021/05/28 14:07:23;;;;;;;2.58;0.98;;;;;;;;;;4981071;28;20054;-65
2021/05/28 14:10:09;;;;;;;1.98;1.10;;;;;;;;;;4982875;28;20047;-66
2021/05/28 14:12:55;;;;;;;1.50;0.95;;;;;;;;;;4978026;28;20047;-65
2021/05/28 14:15:41;;;;;;;1.42;1.00;;;;;;;;;;4978310;28;20054;-66
2021/05/28 14:18:26;;;;;;;2.80;1.30;;;;;;;;;;4985830;28;20068;-66
2021/05/28 14:21:12;;;;;;;2.55;0.85;;;;;;;;;;4981856;28;20105;-65
2021/05/28 14:23:57;;;;;;;3.13;1.20;;;;;;;;;;4982091;28;20065;-65
2021/05/28 14:26:43;;;;;;;4.70;1.30;;;;;;;;;;4983249;28;20038;-65
2021/05/28 14:29:28;;;;;;;2.33;1.20;;;;;;;;;;4976887;28;20424;-66
2021/05/28 14:32:13;;;;;;;2.20;1.25;;;;;;;;;;4980475;28;20151;-65
2021/05/28 14:34:59;;;;;;;1.70;0.60;;;;;;;;;;4980243;28;20041;-66
2021/05/28 14:37:44;;;;;;;2.50;1.00;;;;;;;;;;4984517;28;20068;-66
2021/05/28 14:40:30;;;;;;;3.28;1.15;;;;;;;;;;4991813;28;20109;-65
2021/05/28 14:43:15;;;;;;;2.00;0.90;;;;;;;;;;4995937;28;20050;-66
2021/05/28 14:46:03;;;;;;;1.58;1.10;;;;;;;;;;4993172;28;20105;-65
2021/05/28 14:48:49;;;;;;;3.90;1.13;;;;;;;;;;4994541;28;20045;-66
2021/05/28 14:51:34;;;;;;;1.90;0.90;;;;;;;;;;4987797;28;20591;-66
2021/05/28 14:54:20;;;;;;;1.48;0.60;;;;;;;;;;4986595;28;20093;-65
2021/05/28 14:57:05;;;;;;;1.67;0.88;;;;;;;;;;4985585;28;20058;-66
2021/05/28 14:59:52;;;;;;;2.72;1.20;;;;;;;;;;4984488;28;20042;-65
2021/05/28 15:02:38;;;;;;;2.05;0.90;;;;;;;;;;4990921;28;20047;-66
2021/05/28 15:05:23;;;;;;;2.00;1.23;;;;;;;;;;4980784;28;20073;-65
2021/05/28 15:08:08;;;;;;;1.08;0.98;;;;;;;;;;4994853;28;20141;-66
2021/05/28 15:10:56;;;;;;;3.85;1.20;;;;;;;;;;4994058;28;20043;-66
2021/05/28 15:13:42;;;;;;;3.53;1.10;;;;;;;;;;4993009;28;20050;-66
2021/05/28 15:16:27;;;;;;;2.20;0.98;;;;;;;;;;4992978;28;20053;-66
2021/05/28 15:19:12;;;;;;;2.63;1.10;;;;;;;;;;4986031;28;20100;-65
2021/05/28 15:21:58;;;;;;;3.38;0.93;;;;;;;;;;4994462;28;20188;-65
2021/05/28 15:24:43;;;;;;;2.65;1.10;;;;;;;;;;4993874;28;20046;-65
2021/05/28 15:27:28;;;;;;;1.67;1.20;;;;;;;;;;4994687;28;20149;-65
2021/05/28 15:30:14;;;;;;;3.65;1.45;;;;;;;;;;4993090;28;20065;-65
2021/05/28 15:33:00;;;;;;;1.38;1.02;;;;;;;;;;4984213;28;20065;-65
2021/05/28 15:35:46;;;;;;;1.58;1.08;;;;;;;;;;4993186;28;20049;-65
2021/05/28 15:38:31;;;;;;;3.45;1.40;;;;;;;;;;4993467;28;20105;-65
2021/05/28 15:41:17;;;;;;;1.17;0.63;;;;;;;;;;4983714;28;20057;-64
2021/05/28 15:44:02;;;;;;;2.97;1.08;;;;;;;;;;4993482;28;20169;-65
2021/05/28 15:46:47;;;;;;;1.98;0.90;;;;;;;;;;4992960;28;20120;-65
2021/05/28 15:49:33;;;;;;;3.20;1.05;;;;;;;;;;4994022;28;20591;-66
2021/05/28 15:52:18;;;;;;;3.00;1.00;;;;;;;;;;4979069;28;20413;-66
2021/05/28 15:55:04;;;;;;;2.33;1.02;;;;;;;;;;4993553;28;20045;-66
2021/05/28 15:57:49;;;;;;;2.20;1.00;;;;;;;;;;4993592;28;20089;-66
2021/05/28 16:00:34;;;;;;;2.35;1.30;;;;;;;;;;4993877;28;20077;-65
2021/05/28 16:03:20;;;;;;;2.30;1.08;;;;;;;;;;4993789;28;20050;-64
2021/05/28 16:06:05;;;;;;;2.70;1.08;;;;;;;;;;4974734;28;20100;-65
2021/05/28 16:08:50;;;;;;;1.80;1.23;;;;;;;;;;4992495;28;20089;-64
2021/05/28 16:11:35;;;;;;;1.17;0.80;;;;;;;;;;4990365;28;20720;-65
2021/05/28 16:14:21;;;;;;;1.38;0.95;;;;;;;;;;4991473;28;20042;-64
2021/05/28 16:17:06;;;;;;;2.65;0.98;;;;;;;;;;4985249;28;20050;-64
2021/05/28 16:19:51;;;;;;;1.58;1.00;;;;;;;;;;4989937;28;20049;-64
2021/05/28 16:22:37;;;;;;;1.88;0.98;;;;;;;;;;4990659;28;20519;-64
2021/05/28 16:25:22;;;;;;;1.80;1.10;;;;;;;;;;4991035;28;20121;-64